Time;durP1;ratioP1;P1;durP2;ratioP2;P2;SDS_P1;SDS_P2;PMS_P1;PMS_P2;Temp;Humidity;BMP_temperature;BMP_pressure;BME280_temperature;BME280_humidity;BME280_pressure;Samples;Min_cycle;Max_cycle;Signal;HPM_P1;HPM_P2
2021/10/22 00:02:17;;;;;;;6.13;1.40;;;8.20;85.90;;;;;;5087842;28;20033;-74
2021/10/22 00:04:42;;;;;;;4.82;1.17;;;8.20;86.50;;;;;;5072254;28;20028;-74
2021/10/22 00:07:09;;;;;;;7.28;1.58;;;8.20;86.00;;;;;;5072277;28;20036;-74
2021/10/22 00:09:35;;;;;;;5.88;1.23;;;8.20;86.00;;;;;;5072117;28;20029;-74
2021/10/22 00:12:03;;;;;;;7.22;1.63;;;8.20;86.10;;;;;;5087698;28;20036;-74
2021/10/22 00:14:29;;;;;;;4.80;1.27;;;8.30;86.10;;;;;;5072355;28;20074;-74
2021/10/22 00:16:54;;;;;;;5.80;1.42;;;8.20;86.00;;;;;;5087667;28;20465;-75
2021/10/22 00:19:20;;;;;;;6.50;1.40;;;8.30;86.00;;;;;;5087675;28;20043;-74
2021/10/22 00:21:46;;;;;;;4.85;1.00;;;8.30;86.00;;;;;;5087645;28;20123;-74
2021/10/22 00:24:11;;;;;;;7.40;1.70;;;8.30;86.00;;;;;;5087560;28;20013;-74
2021/10/22 00:26:37;;;;;;;6.40;1.58;;;8.20;86.00;;;;;;5072055;28;20040;-74
2021/10/22 00:29:04;;;;;;;6.50;1.98;;;8.20;85.90;;;;;;5087643;28;20017;-74
2021/10/22 00:31:31;;;;;;;5.35;1.25;;;8.30;86.00;;;;;;5075308;28;20438;-74
2021/10/22 00:33:57;;;;;;;6.82;1.27;;;8.30;86.00;;;;;;5075515;28;20025;-74
2021/10/22 00:36:23;;;;;;;7.13;1.50;;;8.30;85.90;;;;;;5091118;28;20021;-74
2021/10/22 00:38:50;;;;;;;7.05;1.33;;;8.30;85.80;;;;;;5075510;28;20472;-73
2021/10/22 00:41:17;;;;;;;4.90;1.20;;;8.40;85.70;;;;;;5090656;28;20063;-74
2021/10/22 00:43:43;;;;;;;3.20;1.02;;;8.40;85.60;;;;;;5091006;28;20114;-74
2021/10/22 00:46:09;;;;;;;3.78;1.23;;;8.40;85.60;;;;;;5090840;28;20026;-74
2021/10/22 00:48:39;;;;;;;4.65;1.10;;;8.40;85.50;;;;;;5073996;28;20012;-74
2021/10/22 00:51:08;;;;;;;6.55;1.45;;;8.40;85.50;;;;;;5090773;28;20025;-74
2021/10/22 00:53:38;;;;;;;6.18;1.60;;;8.30;85.50;;;;;;5090655;28;20024;-73
2021/10/22 00:56:09;;;;;;;3.00;1.10;;;8.30;86.00;;;;;;5090642;28;20070;-74
2021/10/22 00:58:37;;;;;;;5.30;1.30;;;8.20;85.70;;;;;;5090664;28;20116;-73
2021/10/22 01:04:25;;;;;;;8.35;1.48;;;8.20;85.80;;;;;;5075434;28;20518;-73
2021/10/22 01:06:50;;;;;;;4.10;1.45;;;8.10;85.80;;;;;;5090464;28;20059;-74
2021/10/22 01:09:17;;;;;;;6.20;1.35;;;8.10;85.90;;;;;;5074950;28;20460;-73
2021/10/22 01:11:42;;;;;;;6.10;1.30;;;8.00;85.90;;;;;;5074739;28;20025;-74
2021/10/22 01:14:08;;;;;;;5.00;1.20;;;8.00;85.90;;;;;;5074969;28;20081;-74
2021/10/22 01:16:40;;;;;;;5.50;1.60;;;8.00;85.90;;;;;;5074757;28;20024;-74
2021/10/22 01:19:06;;;;;;;5.43;1.65;;;8.00;86.00;;;;;;5074780;28;20021;-74
2021/10/22 01:21:32;;;;;;;7.68;1.38;;;7.90;85.90;;;;;;5090237;28;20021;-74
2021/10/22 01:23:58;;;;;;;7.13;1.30;;;7.90;86.00;;;;;;5074583;28;20031;-74
2021/10/22 01:29:45;;;;;;;4.35;1.48;;;7.90;86.10;;;;;;5074821;28;20039;-74
2021/10/22 01:32:11;;;;;;;5.82;1.30;;;7.80;86.00;;;;;;5074501;28;20017;-73
2021/10/22 01:34:37;;;;;;;6.85;1.58;;;7.80;86.10;;;;;;5090019;28;20059;-73
2021/10/22 01:37:02;;;;;;;6.15;1.73;;;7.80;86.10;;;;;;5089867;28;20028;-74
2021/10/22 01:39:28;;;;;;;6.93;1.60;;;7.80;86.70;;;;;;5089671;28;20051;-74
2021/10/22 01:41:55;;;;;;;5.22;1.27;;;7.80;86.10;;;;;;5090015;28;20213;-73
2021/10/22 01:44:23;;;;;;;6.97;1.77;;;7.80;86.10;;;;;;5089759;28;20033;-73
2021/10/22 01:46:49;;;;;;;7.43;1.50;;;7.80;86.20;;;;;;5074299;28;20020;-73
2021/10/22 01:49:16;;;;;;;7.07;1.58;;;7.70;86.10;;;;;;5089779;28;20028;-74
2021/10/22 01:51:42;;;;;;;5.47;1.60;;;7.70;86.10;;;;;;5089664;28;20123;-74
2021/10/22 01:54:08;;;;;;;6.72;1.63;;;7.60;86.10;;;;;;5089670;28;20052;-74
2021/10/22 01:56:34;;;;;;;3.85;1.33;;;7.70;86.10;;;;;;5089525;28;20051;-73
2021/10/22 01:59:00;;;;;;;7.30;1.48;;;7.60;86.10;;;;;;5073865;28;20025;-73
2021/10/22 02:01:26;;;;;;;8.13;1.60;;;7.60;86.10;;;;;;5089479;28;20088;-74
2021/10/22 02:03:51;;;;;;;4.15;1.60;;;7.60;86.20;;;;;;5073881;28;20029;-73
2021/10/22 02:06:17;;;;;;;11.38;2.00;;;7.50;86.20;;;;;;5089325;28;20047;-74
2021/10/22 02:08:43;;;;;;;7.53;1.85;;;7.60;86.30;;;;;;5073736;28;20112;-73
2021/10/22 02:11:09;;;;;;;5.05;1.33;;;7.50;86.30;;;;;;5089160;28;20036;-73
2021/10/22 02:13:35;;;;;;;5.63;1.50;;;7.60;86.40;;;;;;5073677;28;20046;-73
2021/10/22 02:16:01;;;;;;;5.63;1.33;;;7.60;86.40;;;;;;5089111;28;20362;-74
2021/10/22 02:18:26;;;;;;;6.28;1.30;;;7.50;86.30;;;;;;5089028;28;20488;-74
2021/10/22 02:20:52;;;;;;;5.45;1.25;;;7.60;86.30;;;;;;5089134;28;20115;-74
2021/10/22 02:23:18;;;;;;;9.30;1.63;;;7.60;86.30;;;;;;5089021;28;20028;-74
2021/10/22 02:25:45;;;;;;;8.05;1.83;;;7.50;86.20;;;;;;5089052;28;20031;-75
2021/10/22 02:28:10;;;;;;;7.90;1.50;;;7.50;86.10;;;;;;5089015;28;20120;-73
2021/10/22 02:30:36;;;;;;;5.53;1.38;;;7.50;86.10;;;;;;5088818;28;20457;-73
2021/10/22 02:33:02;;;;;;;4.95;1.35;;;7.50;86.10;;;;;;5088938;28;20472;-75
2021/10/22 02:35:28;;;;;;;10.10;1.73;;;7.50;86.00;;;;;;5088854;28;20056;-73
2021/10/22 02:37:54;;;;;;;11.80;1.63;;;7.50;86.10;;;;;;5088607;28;20028;-74
2021/10/22 02:40:20;;;;;;;7.15;1.40;;;7.40;86.00;;;;;;5072950;28;20068;-74
2021/10/22 02:42:46;;;;;;;3.55;1.00;;;7.50;86.10;;;;;;5105740;28;20488;-73
2021/10/22 02:45:12;;;;;;;7.32;1.63;;;7.40;86.00;;;;;;5105560;28;20029;-73
2021/10/22 02:47:38;;;;;;;4.20;1.10;;;7.40;86.00;;;;;;5071879;28;20169;-73
2021/10/22 02:50:04;;;;;;;3.38;1.00;;;7.40;86.60;;;;;;5105459;28;20123;-74
2021/10/22 02:52:30;;;;;;;6.38;1.60;;;7.40;85.90;;;;;;5105144;28;20502;-73
2021/10/22 02:54:55;;;;;;;8.02;1.27;;;7.40;85.90;;;;;;5105560;28;20020;-74
2021/10/22 02:57:21;;;;;;;5.10;1.38;;;7.40;85.80;;;;;;5105485;28;20024;-74
2021/10/22 02:59:46;;;;;;;6.47;1.42;;;7.40;86.40;;;;;;5072881;28;20029;-74
2021/10/22 03:02:12;;;;;;;3.78;1.40;;;7.40;85.80;;;;;;5088483;28;20027;-73
2021/10/22 03:04:38;;;;;;;5.55;1.17;;;7.40;85.70;;;;;;5071493;28;20068;-73
2021/10/22 03:07:03;;;;;;;4.32;1.63;;;7.40;85.70;;;;;;5088375;28;20024;-73
2021/10/22 03:09:29;;;;;;;4.93;1.30;;;7.40;85.70;;;;;;5105210;28;20040;-74
2021/10/22 03:11:54;;;;;;;6.78;1.70;;;7.40;85.70;;;;;;5088285;28;20032;-74
2021/10/22 03:14:20;;;;;;;8.02;1.75;;;7.40;85.60;;;;;;5105297;28;20020;-74
2021/10/22 03:16:46;;;;;;;5.20;1.25;;;7.40;85.50;;;;;;5105288;28;20027;-74
2021/10/22 03:19:12;;;;;;;8.20;1.80;;;7.30;85.40;;;;;;5088215;28;20024;-73
2021/10/22 03:21:41;;;;;;;7.95;1.33;;;7.30;85.40;;;;;;5105118;28;20495;-74
2021/10/22 03:24:07;;;;;;;10.18;2.00;;;7.30;85.40;;;;;;5071338;28;20496;-73
2021/10/22 03:26:33;;;;;;;5.50;1.45;;;7.30;85.40;;;;;;5088391;28;20029;-73
2021/10/22 03:28:59;;;;;;;8.15;1.90;;;7.30;85.30;;;;;;5105096;28;20035;-73
2021/10/22 03:31:25;;;;;;;8.48;2.10;;;7.30;85.30;;;;;;5087980;28;20021;-73
2021/10/22 03:33:51;;;;;;;7.00;1.60;;;7.30;85.30;;;;;;5105027;28;20177;-73
2021/10/22 03:36:17;;;;;;;5.15;1.60;;;7.30;85.40;;;;;;5104991;28;20111;-74
2021/10/22 03:38:42;;;;;;;6.85;1.67;;;7.30;85.40;;;;;;5105012;28;20024;-74
2021/10/22 03:41:08;;;;;;;8.45;2.22;;;7.20;85.40;;;;;;5072419;28;20040;-74
2021/10/22 03:43:35;;;;;;;10.43;2.28;;;7.30;85.40;;;;;;5072395;28;20029;-74
2021/10/22 03:46:04;;;;;;;7.72;2.42;;;7.30;85.20;;;;;;5072400;28;20090;-73
2021/10/22 03:48:29;;;;;;;6.22;1.88;;;7.20;85.20;;;;;;5087987;28;20032;-74
2021/10/22 03:50:56;;;;;;;8.10;2.15;;;7.20;85.00;;;;;;5087881;28;20075;-73
2021/10/22 03:53:21;;;;;;;8.43;2.00;;;7.20;85.10;;;;;;5087877;28;20028;-74
2021/10/22 03:55:48;;;;;;;7.40;2.10;;;7.20;85.10;;;;;;5104929;28;20043;-73
2021/10/22 03:58:13;;;;;;;8.93;2.03;;;7.20;85.00;;;;;;5087846;28;20404;-73
2021/10/22 04:00:40;;;;;;;8.13;2.30;;;7.20;85.10;;;;;;5104848;28;20033;-73
2021/10/22 04:03:06;;;;;;;8.50;2.47;;;7.20;84.90;;;;;;5104778;28;20024;-73
2021/10/22 04:05:33;;;;;;;6.35;2.15;;;7.20;84.80;;;;;;5073847;28;20032;-73
2021/10/22 04:07:59;;;;;;;10.82;2.72;;;7.20;84.80;;;;;;5108655;28;20486;-73
2021/10/22 04:10:24;;;;;;;10.13;2.70;;;7.20;84.80;;;;;;5091521;28;20028;-74
2021/10/22 04:12:50;;;;;;;8.23;2.53;;;7.20;84.80;;;;;;5108609;28;20020;-74
2021/10/22 04:15:16;;;;;;;10.88;2.42;;;7.20;84.80;;;;;;5108427;28;20070;-74
2021/10/22 04:17:41;;;;;;;8.93;2.83;;;7.20;84.80;;;;;;5108335;28;20060;-73
2021/10/22 04:20:08;;;;;;;11.35;2.55;;;7.30;84.70;;;;;;5091399;28;20453;-73
2021/10/22 04:22:35;;;;;;;8.23;2.63;;;7.30;84.60;;;;;;5108587;28;20040;-73
2021/10/22 04:25:01;;;;;;;8.40;2.80;;;7.40;84.40;;;;;;5075851;28;20040;-73
2021/10/22 04:27:32;;;;;;;8.10;2.45;;;7.40;84.40;;;;;;5074346;28;20037;-73
2021/10/22 04:30:03;;;;;;;8.13;2.28;;;7.40;84.30;;;;;;5091171;28;20028;-73
2021/10/22 04:32:28;;;;;;;7.57;2.38;;;7.40;84.40;;;;;;5075651;28;20032;-73
2021/10/22 04:34:54;;;;;;;8.57;2.80;;;7.50;84.40;;;;;;5075566;28;20055;-73
2021/10/22 04:42:45;;;;;;;10.82;2.70;;;7.50;84.20;;;;;;5075425;28;20067;-73
2021/10/22 04:45:11;;;;;;;5.88;2.50;;;7.50;84.10;;;;;;5090968;28;20064;-73
2021/10/22 04:47:38;;;;;;;9.52;2.90;;;7.60;84.20;;;;;;5091016;28;20025;-73
2021/10/22 04:50:06;;;;;;;5.18;2.45;;;7.60;84.20;;;;;;5107821;28;20024;-74
2021/10/22 04:52:31;;;;;;;8.85;2.80;;;7.60;84.20;;;;;;5090636;28;20112;-75
2021/10/22 04:54:57;;;;;;;10.63;2.95;;;7.70;84.20;;;;;;5107726;28;20060;-74
2021/10/22 04:57:23;;;;;;;9.43;2.67;;;7.70;84.10;;;;;;5107731;28;20033;-74
2021/10/22 04:59:48;;;;;;;12.57;3.13;;;7.80;84.30;;;;;;5090704;28;20077;-74
2021/10/22 05:02:14;;;;;;;10.25;2.50;;;7.80;84.30;;;;;;5107517;28;20175;-74
2021/10/22 05:04:39;;;;;;;7.93;2.53;;;7.80;84.90;;;;;;5107537;28;20021;-74
2021/10/22 05:07:05;;;;;;;5.93;2.60;;;7.80;84.20;;;;;;5075205;28;20029;-74
2021/10/22 05:09:30;;;;;;;9.90;2.58;;;7.80;84.30;;;;;;5107541;28;20082;-74
2021/10/22 05:11:56;;;;;;;7.45;2.58;;;7.80;84.30;;;;;;5073726;28;20473;-74
2021/10/22 05:14:21;;;;;;;7.97;2.63;;;7.90;84.40;;;;;;5107407;28;20500;-74
2021/10/22 05:16:47;;;;;;;9.20;2.72;;;7.90;84.40;;;;;;5107086;28;20131;-74
2021/10/22 05:19:13;;;;;;;5.35;2.47;;;7.90;84.50;;;;;;5074771;28;20067;-74
2021/10/22 05:21:38;;;;;;;7.45;2.50;;;8.00;84.50;;;;;;5074748;28;20040;-74
2021/10/22 05:24:04;;;;;;;6.85;2.38;;;8.00;84.60;;;;;;5090235;28;20028;-76
2021/10/22 05:26:30;;;;;;;7.80;2.30;;;8.00;84.70;;;;;;5074627;28;20549;-74
2021/10/22 05:28:55;;;;;;;8.80;2.60;;;8.00;84.80;;;;;;5107033;28;20036;-75
2021/10/22 05:31:21;;;;;;;9.25;2.30;;;8.00;84.90;;;;;;5107029;28;20047;-75
2021/10/22 05:33:46;;;;;;;8.80;2.80;;;8.00;85.10;;;;;;5090226;28;20040;-75
2021/10/22 05:36:12;;;;;;;5.68;2.03;;;8.00;85.30;;;;;;5106923;28;20032;-75
2021/10/22 05:38:37;;;;;;;10.35;2.25;;;8.00;85.50;;;;;;5107274;28;20024;-75
2021/10/22 05:41:03;;;;;;;7.82;2.38;;;7.90;85.60;;;;;;5071820;28;20049;-75
2021/10/22 05:43:29;;;;;;;9.20;3.38;;;7.90;85.90;;;;;;5069657;28;20135;-75
2021/10/22 05:45:54;;;;;;;5.85;2.50;;;7.80;86.10;;;;;;5069647;28;20029;-75
2021/10/22 05:48:20;;;;;;;9.35;2.70;;;7.80;86.30;;;;;;5069838;28;20037;-75
2021/10/22 05:50:45;;;;;;;7.95;2.20;;;7.70;86.50;;;;;;5054278;28;20397;-75
2021/10/22 05:53:11;;;;;;;8.30;2.70;;;7.80;87.30;;;;;;5054216;28;20037;-75
2021/10/22 05:55:37;;;;;;;7.03;2.13;;;7.70;86.60;;;;;;5069755;28;20470;-75
2021/10/22 05:58:02;;;;;;;9.18;2.90;;;7.70;86.80;;;;;;5069440;28;20057;-74
2021/10/22 06:00:28;;;;;;;9.63;2.30;;;7.60;86.80;;;;;;5053978;28;20028;-75
2021/10/22 06:02:55;;;;;;;12.82;2.20;;;7.60;86.90;;;;;;5069469;28;20370;-74
2021/10/22 06:05:21;;;;;;;8.98;2.45;;;7.70;87.00;;;;;;5069191;28;20024;-75
2021/10/22 06:07:46;;;;;;;6.70;2.35;;;7.70;87.20;;;;;;5069189;28;20025;-75
2021/10/22 06:10:12;;;;;;;10.35;2.67;;;7.70;87.20;;;;;;5069164;28;20029;-74
2021/10/22 06:12:38;;;;;;;7.40;2.30;;;7.70;87.20;;;;;;5069047;28;20028;-75
2021/10/22 06:15:04;;;;;;;6.28;2.25;;;7.80;87.20;;;;;;5053794;28;20025;-76
2021/10/22 06:17:30;;;;;;;13.45;2.60;;;7.90;87.20;;;;;;5052296;28;20029;-75
2021/10/22 06:19:59;;;;;;;10.57;2.60;;;7.90;87.10;;;;;;5069048;28;20033;-74
2021/10/22 06:25:18;;;;;;;8.85;2.75;;;8.00;87.10;;;;;;5037564;28;20028;-75
2021/10/22 06:27:44;;;;;;;9.82;2.33;;;8.10;87.10;;;;;;5068167;28;20053;-74
2021/10/22 06:30:09;;;;;;;8.77;2.47;;;8.10;87.10;;;;;;5053364;28;20071;-75
2021/10/22 06:32:35;;;;;;;9.93;2.50;;;8.20;87.20;;;;;;5068755;28;20032;-75
2021/10/22 06:35:01;;;;;;;11.75;2.85;;;8.20;87.20;;;;;;5053488;28;20052;-76
2021/10/22 06:37:26;;;;;;;6.53;2.38;;;8.20;87.20;;;;;;5068727;28;20428;-75
2021/10/22 06:39:52;;;;;;;6.38;2.25;;;8.20;87.30;;;;;;5061088;28;20049;-75
2021/10/22 06:42:18;;;;;;;7.13;2.35;;;8.30;87.50;;;;;;5105890;28;20403;-75
2021/10/22 06:44:44;;;;;;;6.60;2.58;;;8.30;87.60;;;;;;5105757;28;20504;-75
2021/10/22 06:47:09;;;;;;;8.52;2.65;;;8.20;87.60;;;;;;5105716;28;20028;-75
2021/10/22 06:49:35;;;;;;;7.68;2.92;;;8.20;87.70;;;;;;5105787;28;20016;-75
2021/10/22 06:52:01;;;;;;;10.18;2.67;;;8.20;87.80;;;;;;5073080;28;20095;-75
2021/10/22 06:54:27;;;;;;;10.43;3.13;;;8.20;87.90;;;;;;5073138;28;20024;-75
2021/10/22 06:56:53;;;;;;;7.00;2.65;;;8.20;87.90;;;;;;5105737;28;20545;-74
2021/10/22 06:59:18;;;;;;;7.22;2.53;;;8.30;88.00;;;;;;5105621;28;20120;-75
2021/10/22 07:01:44;;;;;;;7.88;2.80;;;8.30;87.90;;;;;;5071809;28;20032;-74
2021/10/22 07:04:11;;;;;;;8.50;2.97;;;8.30;87.90;;;;;;5105556;28;20036;-75
2021/10/22 07:09:21;;;;;;;9.82;2.70;;;8.50;88.00;;;;;;5073360;28;20506;-73
2021/10/22 07:11:47;;;;;;;10.02;3.35;;;8.50;87.90;;;;;;5073014;28;20024;-74
2021/10/22 07:14:13;;;;;;;8.90;3.25;;;8.50;87.80;;;;;;5088477;28;20055;-74
2021/10/22 07:16:40;;;;;;;11.38;2.85;;;8.50;87.80;;;;;;5105345;28;20441;-74
2021/10/22 07:19:06;;;;;;;8.93;2.50;;;8.50;87.80;;;;;;5073012;28;20472;-74
2021/10/22 07:24:54;;;;;;;7.80;2.88;;;8.60;87.70;;;;;;5073118;28;20027;-75
2021/10/22 07:27:20;;;;;;;8.73;2.60;;;8.50;87.40;;;;;;5072935;28;20032;-75
2021/10/22 07:29:46;;;;;;;9.70;3.22;;;8.50;87.40;;;;;;5105399;28;20040;-74
2021/10/22 07:32:13;;;;;;;5.55;2.40;;;8.50;88.10;;;;;;5091062;28;20108;-73
2021/10/22 07:34:39;;;;;;;9.30;2.80;;;8.50;87.60;;;;;;5072714;28;20025;-74
2021/10/22 07:37:05;;;;;;;11.27;2.90;;;8.60;87.50;;;;;;5105086;28;20039;-74
2021/10/22 07:39:31;;;;;;;8.55;3.20;;;8.60;87.40;;;;;;5107070;28;20094;-75
2021/10/22 07:41:57;;;;;;;11.05;3.10;;;8.70;87.20;;;;;;5109467;28;20430;-76
2021/10/22 07:44:24;;;;;;;8.38;3.20;;;8.80;87.10;;;;;;5109282;28;20078;-77
2021/10/22 07:46:49;;;;;;;10.23;3.15;;;8.80;86.90;;;;;;5109211;28;20082;-76
2021/10/22 07:49:15;;;;;;;10.40;2.55;;;8.80;86.80;;;;;;5109276;28;20029;-77
2021/10/22 07:51:42;;;;;;;8.90;2.78;;;8.90;86.80;;;;;;5109129;28;20447;-78
2021/10/22 07:54:09;;;;;;;8.13;2.78;;;8.90;86.70;;;;;;5092159;28;20020;-78
2021/10/22 07:56:35;;;;;;;10.77;3.20;;;8.90;86.80;;;;;;5091950;28;20028;-76
2021/10/22 07:59:03;;;;;;;10.13;2.85;;;9.00;86.70;;;;;;5108967;28;20032;-76
2021/10/22 08:01:29;;;;;;;8.45;2.90;;;9.00;86.70;;;;;;5108934;28;20020;-75
2021/10/22 08:03:54;;;;;;;8.95;2.70;;;9.10;86.70;;;;;;5091819;28;20048;-78
2021/10/22 08:06:20;;;;;;;9.90;2.78;;;9.10;86.60;;;;;;5108875;28;20032;-77
2021/10/22 08:12:08;;;;;;;10.05;2.78;;;9.20;86.50;;;;;;5076110;28;20074;-75
2021/10/22 08:14:34;;;;;;;6.60;2.40;;;9.30;86.30;;;;;;5108514;28;20024;-74
2021/10/22 08:17:00;;;;;;;9.48;2.85;;;9.30;86.20;;;;;;5108681;28;20021;-74
2021/10/22 08:19:26;;;;;;;6.82;2.35;;;9.40;86.10;;;;;;5108696;28;20124;-75
2021/10/22 08:24:23;;;;;;;9.38;2.58;;;9.40;85.90;;;;;;5076015;28;20514;-74
2021/10/22 08:26:50;;;;;;;9.77;2.75;;;9.40;85.90;;;;;;5108371;28;20024;-75
2021/10/22 08:29:15;;;;;;;9.90;2.50;;;9.40;86.10;;;;;;5075888;28;20391;-74
2021/10/22 08:31:41;;;;;;;13.73;2.95;;;9.40;86.10;;;;;;5108301;28;20025;-75
2021/10/22 08:34:06;;;;;;;12.23;2.78;;;9.40;86.00;;;;;;5091170;28;20031;-78
2021/10/22 08:36:32;;;;;;;7.72;2.60;;;9.40;85.90;;;;;;5108466;28;20047;-75
2021/10/22 08:38:58;;;;;;;13.35;3.20;;;9.40;85.90;;;;;;5108038;28;20480;-72
2021/10/22 08:41:23;;;;;;;9.95;2.95;;;9.50;85.90;;;;;;5075616;28;20064;-73
2021/10/22 08:43:52;;;;;;;7.82;2.40;;;9.50;85.60;;;;;;5074219;28;20040;-75
2021/10/22 08:46:22;;;;;;;9.32;2.85;;;9.70;85.50;;;;;;5108053;28;20119;-76
2021/10/22 08:48:48;;;;;;;6.38;2.10;;;9.80;85.10;;;;;;5108074;28;20476;-75
2021/10/22 08:51:18;;;;;;;5.80;2.03;;;9.90;85.00;;;;;;5107188;28;20029;-76
2021/10/22 08:53:45;;;;;;;7.68;2.63;;;9.90;84.90;;;;;;5108091;28;20048;-76
2021/10/22 08:56:11;;;;;;;6.97;2.50;;;10.00;84.50;;;;;;5090846;28;20447;-75
2021/10/22 08:58:36;;;;;;;10.20;2.60;;;10.00;84.30;;;;;;5108041;28;20058;-74
2021/10/22 09:01:02;;;;;;;9.48;2.63;;;10.00;84.60;;;;;;5091081;28;20032;-74
2021/10/22 09:03:37;;;;;;;8.68;2.78;;;10.00;84.00;;;;;;5090970;28;20037;-76
2021/10/22 09:06:15;;;;;;;8.95;2.80;;;10.00;84.30;;;;;;5091067;28;20028;-76
2021/10/22 09:08:46;;;;;;;5.88;2.40;;;10.00;84.20;;;;;;5108080;28;20024;-77
2021/10/22 09:11:27;;;;;;;6.28;2.83;;;10.10;84.30;;;;;;5108239;28;20468;-77
2021/10/22 09:14:19;;;;;;;7.05;2.33;;;10.20;84.20;;;;;;5107700;28;20063;-74
2021/10/22 09:16:50;;;;;;;6.28;2.13;;;10.20;84.10;;;;;;5085622;28;20496;-75
2021/10/22 09:19:34;;;;;;;9.77;2.75;;;10.30;84.10;;;;;;5090624;28;20021;-76
2021/10/22 09:22:19;;;;;;;4.97;2.20;;;10.30;83.90;;;;;;5090777;28;20158;-73
2021/10/22 09:24:56;;;;;;;6.82;2.28;;;10.30;83.70;;;;;;5107843;28;20506;-77
2021/10/22 09:27:32;;;;;;;9.05;2.38;;;10.30;83.60;;;;;;5090323;28;20016;-74
2021/10/22 09:29:58;;;;;;;11.13;2.35;;;10.30;83.40;;;;;;5074792;28;20068;-74
2021/10/22 09:32:25;;;;;;;8.43;2.33;;;10.40;83.60;;;;;;5090232;28;20181;-74
2021/10/22 09:34:52;;;;;;;7.57;2.25;;;10.40;83.40;;;;;;5090218;28;20021;-74
2021/10/22 09:37:17;;;;;;;7.45;2.13;;;10.40;83.50;;;;;;5090228;28;20044;-75
2021/10/22 09:39:43;;;;;;;9.98;2.17;;;10.50;83.40;;;;;;5074432;28;20813;-74
2021/10/22 09:42:15;;;;;;;13.75;2.78;;;10.50;83.20;;;;;;5074631;28;20039;-75
2021/10/22 09:44:43;;;;;;;8.35;1.70;;;10.50;83.20;;;;;;5090186;28;20480;-76
2021/10/22 09:47:08;;;;;;;8.02;2.00;;;10.50;83.40;;;;;;5089987;28;20034;-75
2021/10/22 09:50:05;;;;;;;6.07;1.83;;;10.60;83.50;;;;;;5074356;28;20096;-75
2021/10/22 09:52:30;;;;;;;6.75;1.55;;;10.60;83.80;;;;;;5089789;28;20047;-75
2021/10/22 09:55:14;;;;;;;5.43;1.95;;;10.60;83.90;;;;;;5089698;28;20021;-74
2021/10/22 09:57:41;;;;;;;9.38;2.10;;;10.60;84.00;;;;;;5089752;28;20016;-74
2021/10/22 10:00:22;;;;;;;6.05;1.70;;;10.60;84.00;;;;;;5089595;28;20058;-75
2021/10/22 10:02:48;;;;;;;8.88;2.08;;;10.60;84.80;;;;;;5072921;28;20464;-74
2021/10/22 10:05:13;;;;;;;11.93;2.03;;;10.60;84.10;;;;;;5089636;28;20040;-75
2021/10/22 10:07:41;;;;;;;10.23;1.88;;;10.60;84.00;;;;;;5089605;28;20025;-74
2021/10/22 10:10:08;;;;;;;7.57;1.60;;;10.60;84.20;;;;;;5089581;28;20062;-74
2021/10/22 10:12:35;;;;;;;8.60;1.92;;;10.60;84.40;;;;;;5089671;28;20071;-74
2021/10/22 10:15:02;;;;;;;5.70;2.05;;;10.50;84.60;;;;;;5089628;28;20217;-74
2021/10/22 10:17:29;;;;;;;5.43;1.73;;;10.50;84.90;;;;;;5073885;28;20016;-74
2021/10/22 10:19:55;;;;;;;7.10;2.10;;;10.40;85.00;;;;;;5073949;28;20048;-73
2021/10/22 10:22:27;;;;;;;8.80;2.10;;;10.40;85.30;;;;;;5089615;28;20032;-74
2021/10/22 10:24:58;;;;;;;6.50;1.70;;;10.30;85.60;;;;;;5089391;28;20472;-74
2021/10/22 10:27:25;;;;;;;10.00;2.10;;;10.30;86.10;;;;;;5089447;28;20074;-73
2021/10/22 10:29:58;;;;;;;8.25;2.10;;;10.20;86.40;;;;;;5073792;28;20017;-73
2021/10/22 10:32:27;;;;;;;9.48;1.98;;;10.20;86.80;;;;;;5089669;28;20043;-72
2021/10/22 10:34:56;;;;;;;6.53;2.40;;;10.20;87.60;;;;;;5089407;28;20414;-71
2021/10/22 10:37:30;;;;;;;9.30;2.83;;;10.10;87.50;;;;;;5089106;28;20021;-73
2021/10/22 10:40:08;;;;;;;8.45;2.10;;;10.10;87.80;;;;;;5105895;28;20045;-73
2021/10/22 10:42:47;;;;;;;11.85;2.50;;;10.10;88.00;;;;;;5106075;28;20421;-73
2021/10/22 10:45:37;;;;;;;7.57;2.22;;;10.10;88.10;;;;;;5088897;28;20511;-72
2021/10/22 10:48:13;;;;;;;7.95;2.10;;;10.20;88.10;;;;;;5073248;28;20025;-73
2021/10/22 10:50:43;;;;;;;7.80;1.73;;;10.20;88.30;;;;;;5088853;28;20020;-73
2021/10/22 10:56:35;;;;;;;5.60;2.03;;;10.20;88.40;;;;;;5073477;28;20067;-73
2021/10/22 10:59:01;;;;;;;8.75;1.70;;;10.20;88.50;;;;;;5073143;28;20048;-73
2021/10/22 11:01:31;;;;;;;12.02;2.15;;;10.30;88.60;;;;;;5073134;28;20075;-74
2021/10/22 11:03:58;;;;;;;6.40;1.67;;;10.40;88.60;;;;;;5088558;28;20115;-73
2021/10/22 11:06:49;;;;;;;9.48;2.00;;;10.50;88.60;;;;;;5073127;28;20031;-72
2021/10/22 11:09:41;;;;;;;5.63;1.55;;;10.60;88.60;;;;;;5072846;28;20102;-73
2021/10/22 11:12:07;;;;;;;8.52;2.05;;;10.70;88.60;;;;;;5088532;28;20029;-72
2021/10/22 11:14:43;;;;;;;10.13;2.33;;;10.80;88.50;;;;;;5087941;28;20027;-73
2021/10/22 11:17:09;;;;;;;11.00;2.10;;;10.90;88.40;;;;;;5072874;28;20028;-72
2021/10/22 11:19:38;;;;;;;9.10;2.50;;;11.10;88.20;;;;;;5071571;28;20024;-72
2021/10/22 11:22:09;;;;;;;6.55;1.77;;;11.30;87.90;;;;;;5073063;28;20495;-73
2021/10/22 11:24:37;;;;;;;6.25;1.90;;;11.40;87.60;;;;;;5088367;28;20314;-74
2021/10/22 11:27:16;;;;;;;9.52;1.73;;;11.50;87.40;;;;;;5088245;28;20480;-72
2021/10/22 11:29:44;;;;;;;7.47;1.60;;;11.70;87.20;;;;;;5088160;28;20024;-74
2021/10/22 11:32:15;;;;;;;6.85;1.77;;;11.80;87.00;;;;;;5088230;28;20017;-72
2021/10/22 11:34:47;;;;;;;6.55;1.70;;;11.90;86.40;;;;;;5088095;28;20027;-73
2021/10/22 11:37:17;;;;;;;7.28;1.63;;;12.00;85.80;;;;;;5077521;28;20055;-72
2021/10/22 11:39:45;;;;;;;11.88;2.20;;;12.20;85.50;;;;;;5072487;28;20044;-73
2021/10/22 11:42:28;;;;;;;9.13;2.17;;;12.30;85.00;;;;;;5105194;28;20020;-73
2021/10/22 11:45:02;;;;;;;9.77;1.92;;;12.40;84.50;;;;;;5088242;28;20536;-72
2021/10/22 11:47:41;;;;;;;7.53;1.80;;;12.50;83.10;;;;;;5088084;28;20021;-73
2021/10/22 11:50:26;;;;;;;8.75;1.70;;;12.50;82.50;;;;;;5104864;28;20031;-72
2021/10/22 11:52:54;;;;;;;8.05;2.10;;;12.50;82.60;;;;;;5088002;28;20059;-72
2021/10/22 11:55:24;;;;;;;8.70;1.60;;;12.60;82.80;;;;;;5104952;28;20029;-73
2021/10/22 11:57:51;;;;;;;6.10;1.90;;;12.60;82.90;;;;;;5087940;28;20024;-73
2021/10/22 12:00:17;;;;;;;8.75;1.90;;;12.60;82.80;;;;;;5072358;28;20025;-73
2021/10/22 12:06:14;;;;;;;9.93;2.67;;;12.60;82.40;;;;;;5072479;28;20070;-72
2021/10/22 12:08:39;;;;;;;7.15;1.65;;;12.60;82.20;;;;;;5104817;28;20032;-72
2021/10/22 12:11:05;;;;;;;5.10;1.90;;;12.60;82.00;;;;;;5087596;28;20040;-72
2021/10/22 12:13:32;;;;;;;7.15;1.90;;;12.60;81.80;;;;;;5087912;28;20025;-72
2021/10/22 12:16:11;;;;;;;9.15;1.85;;;12.60;81.40;;;;;;5087723;28;20451;-72
2021/10/22 12:18:44;;;;;;;11.18;1.50;;;12.70;81.00;;;;;;5087742;28;20033;-72
2021/10/22 12:21:11;;;;;;;3.33;1.30;;;12.70;81.00;;;;;;5087640;28;20024;-72
2021/10/22 12:23:38;;;;;;;5.35;1.50;;;12.70;81.20;;;;;;5072118;28;20025;-72
2021/10/22 12:26:24;;;;;;;9.82;1.95;;;12.70;80.40;;;;;;5073145;28;20025;-72
2021/10/22 12:29:04;;;;;;;5.95;1.42;;;12.70;79.80;;;;;;5091452;28;20032;-72
2021/10/22 12:31:36;;;;;;;8.70;1.80;;;12.70;80.00;;;;;;5091239;28;20020;-72
2021/10/22 12:34:10;;;;;;;7.95;1.88;;;12.70;78.80;;;;;;5108203;28;20028;-72
2021/10/22 12:36:36;;;;;;;;;;;12.70;79.20;;;;;;5076025;28;20461;-72
2021/10/22 12:39:20;;;;;;;6.18;1.85;;;12.60;79.30;;;;;;5075480;28;19912;-71
2021/10/22 12:41:45;;;;;;;8.45;1.95;;;12.60;79.30;;;;;;5075670;28;20385;-71
2021/10/22 12:44:12;;;;;;;4.90;1.58;;;12.60;79.30;;;;;;5091081;28;20025;-73
2021/10/22 12:46:59;;;;;;;9.05;1.90;;;12.50;79.90;;;;;;5075450;28;20536;-71
2021/10/22 12:49:29;;;;;;;7.43;1.60;;;12.50;80.20;;;;;;5090869;28;20021;-72
2021/10/22 12:51:59;;;;;;;9.00;1.45;;;12.40;80.50;;;;;;5090888;28;20123;-72
2021/10/22 12:54:25;;;;;;;6.68;1.73;;;12.30;80.80;;;;;;5075212;28;20093;-72
2021/10/22 12:56:55;;;;;;;5.47;1.50;;;12.20;81.30;;;;;;5075263;28;20024;-72
2021/10/22 12:59:29;;;;;;;9.68;1.60;;;12.20;81.70;;;;;;5107882;28;20021;-72
2021/10/22 13:01:55;;;;;;;5.88;1.50;;;12.10;81.80;;;;;;5073830;28;20021;-72
2021/10/22 13:04:23;;;;;;;6.65;1.73;;;12.10;82.00;;;;;;5075091;28;20380;-73
2021/10/22 13:07:22;;;;;;;9.13;1.95;;;12.10;82.30;;;;;;5090828;28;20035;-72
2021/10/22 13:09:54;;;;;;;4.78;1.92;;;12.00;82.50;;;;;;5075074;28;20020;-72
2021/10/22 13:22:57;;;;;;;3.55;1.40;;;11.70;84.40;;;;;;5075215;28;20043;-72
2021/10/22 13:25:23;;;;;;;6.60;1.80;;;11.60;84.80;;;;;;5073574;28;20036;-71
2021/10/22 13:27:49;;;;;;;5.70;1.70;;;11.60;85.00;;;;;;5090411;28;20025;-71
2021/10/22 13:30:28;;;;;;;6.47;1.88;;;11.60;85.30;;;;;;5090228;28;20044;-71
2021/10/22 13:33:01;;;;;;;11.68;2.78;;;11.50;85.50;;;;;;5074712;28;20046;-72
2021/10/22 13:35:26;;;;;;;5.90;1.92;;;11.50;85.60;;;;;;5090283;28;20024;-72
2021/10/22 13:37:52;;;;;;;6.75;1.73;;;11.40;85.80;;;;;;5074335;28;20017;-72
2021/10/22 13:40:17;;;;;;;5.72;1.98;;;11.40;86.10;;;;;;5089953;28;20050;-71
2021/10/22 13:42:43;;;;;;;10.95;2.33;;;11.30;86.10;;;;;;5090057;28;20056;-71